createdAt,value
2017-11-04T00:01:37.313Z,8.48
2017-11-04T00:04:04.721Z,8.52
2017-11-04T00:06:32.106Z,8.54
2017-11-04T00:08:59.494Z,8.55
2017-11-04T00:11:26.898Z,8.53
2017-11-04T00:13:54.286Z,8.51
2017-11-04T00:16:21.674Z,8.52
2017-11-04T00:18:49.080Z,8.52
2017-11-04T00:21:16.466Z,8.51
2017-11-04T00:23:43.859Z,8.51
2017-11-04T00:26:11.265Z,8.53
2017-11-04T00:28:38.650Z,8.54
2017-11-04T00:31:06.034Z,8.53
2017-11-04T00:33:33.442Z,8.58
2017-11-04T00:36:00.825Z,8.62
2017-11-04T00:38:28.215Z,8.64
2017-11-04T00:40:55.622Z,8.64
2017-11-04T00:43:23.011Z,8.64
2017-11-04T00:45:50.398Z,8.65
2017-11-04T00:48:17.801Z,8.66
2017-11-04T00:50:45.195Z,8.66
2017-11-04T00:53:12.583Z,8.68
2017-11-04T00:55:39.988Z,8.70
2017-11-04T00:58:07.376Z,8.72
2017-11-04T01:00:34.764Z,8.73
2017-11-04T01:03:02.178Z,8.74
2017-11-04T01:05:29.574Z,8.74
2017-11-04T01:07:56.962Z,8.76
2017-11-04T01:10:24.365Z,8.76
2017-11-04T01:12:51.754Z,8.76
2017-11-04T01:15:19.139Z,8.76
2017-11-04T01:17:46.541Z,8.73
2017-11-04T01:20:13.933Z,8.73
2017-11-04T01:22:41.322Z,8.72
2017-11-04T01:25:08.722Z,8.68
2017-11-04T01:27:36.109Z,8.67
2017-11-04T01:30:03.501Z,8.67
2017-11-04T01:32:30.898Z,8.66
2017-11-04T01:34:58.286Z,8.66
2017-11-04T01:37:25.683Z,8.68
2017-11-04T01:39:53.087Z,8.67
2017-11-04T01:42:20.470Z,8.68
2017-11-04T01:44:47.854Z,8.69
2017-11-04T01:47:15.299Z,8.70
2017-11-04T01:49:42.666Z,8.68
2017-11-04T01:52:10.064Z,8.69
2017-11-04T01:54:37.460Z,8.67
2017-11-04T01:57:04.846Z,8.69
2017-11-04T01:59:32.234Z,8.67
2017-11-04T02:01:59.638Z,8.67
2017-11-04T02:04:27.033Z,8.66
2017-11-04T02:06:54.410Z,8.64
2017-11-04T02:09:21.818Z,8.62
2017-11-04T02:11:49.215Z,8.60
2017-11-04T02:14:16.600Z,8.62
2017-11-04T02:16:44.001Z,8.60
2017-11-04T02:19:11.382Z,8.60
2017-11-04T02:21:38.765Z,8.59
2017-11-04T02:24:06.170Z,8.60
2017-11-04T02:26:33.563Z,8.60
2017-11-04T02:29:00.942Z,8.60
2017-11-04T02:31:28.357Z,8.61
2017-11-04T02:33:55.721Z,8.60
2017-11-04T02:36:23.112Z,8.61
2017-11-04T02:38:50.511Z,8.60
2017-11-04T02:41:17.895Z,8.61
2017-11-04T02:43:45.277Z,8.62
2017-11-04T02:46:12.686Z,8.61
2017-11-04T02:48:40.070Z,8.61
2017-11-04T02:51:07.455Z,8.60
2017-11-04T02:53:34.851Z,8.56
2017-11-04T02:56:02.236Z,8.54
2017-11-04T02:58:29.616Z,8.54
2017-11-04T03:00:57.015Z,8.53
2017-11-04T03:03:24.401Z,8.50
2017-11-04T03:05:51.786Z,8.51
2017-11-04T03:08:19.189Z,8.49
2017-11-04T03:10:46.578Z,8.50
2017-11-04T03:13:13.962Z,8.48
2017-11-04T03:15:41.357Z,8.47
2017-11-04T03:18:08.735Z,8.46
2017-11-04T03:20:36.121Z,8.45
2017-11-04T03:23:03.533Z,8.44
2017-11-04T03:25:30.915Z,8.44
2017-11-04T03:27:58.297Z,8.44
2017-11-04T03:30:25.699Z,8.41
2017-11-04T03:32:53.083Z,8.40
2017-11-04T03:35:20.466Z,8.40
2017-11-04T03:37:47.866Z,8.37
2017-11-04T03:40:15.246Z,8.34
2017-11-04T03:42:42.627Z,8.32
2017-11-04T03:45:10.033Z,8.30
2017-11-04T03:47:37.425Z,8.29
2017-11-04T03:50:04.804Z,8.30
2017-11-04T03:52:32.206Z,8.34
2017-11-04T03:54:59.609Z,8.38
2017-11-04T03:57:26.971Z,8.44
2017-11-04T03:59:54.366Z,8.48
2017-11-04T04:02:21.750Z,8.57
2017-11-04T04:04:49.134Z,8.61
2017-11-04T04:07:16.530Z,8.69
2017-11-04T04:09:43.913Z,8.73
2017-11-04T04:12:11.295Z,8.77
2017-11-04T04:14:38.698Z,8.79
2017-11-04T04:17:06.078Z,8.83
2017-11-04T04:19:33.462Z,8.87
2017-11-04T04:22:00.869Z,8.90
2017-11-04T04:24:28.246Z,8.94
2017-11-04T04:26:55.631Z,8.96
2017-11-04T04:29:23.030Z,8.99
2017-11-04T04:31:50.415Z,9.06
2017-11-04T04:34:17.802Z,9.12
2017-11-04T04:36:45.211Z,9.15
2017-11-04T04:39:12.602Z,9.15
2017-11-04T04:41:39.986Z,9.20
2017-11-04T04:44:07.386Z,9.19
2017-11-04T04:46:34.770Z,9.20
2017-11-04T04:49:02.154Z,9.22
2017-11-04T04:51:29.554Z,9.24
2017-11-04T04:53:56.943Z,9.34
2017-11-04T04:56:24.327Z,9.43
2017-11-04T04:58:52.530Z,9.53
2017-11-04T05:01:19.910Z,9.58
2017-11-04T05:03:47.297Z,9.66
2017-11-04T05:06:14.694Z,9.67
2017-11-04T05:08:42.073Z,9.68
2017-11-04T05:11:09.458Z,9.71
2017-11-04T05:13:36.859Z,9.79
2017-11-04T05:16:04.247Z,9.80
2017-11-04T05:18:31.638Z,9.80
2017-11-04T05:20:59.059Z,9.81
2017-11-04T05:23:26.438Z,9.86
2017-11-04T05:25:53.821Z,9.86
2017-11-04T05:28:21.223Z,9.89
2017-11-04T05:30:48.606Z,9.89
2017-11-04T05:33:15.994Z,9.89
2017-11-04T05:35:43.389Z,9.94
2017-11-04T05:38:10.773Z,9.94
2017-11-04T05:40:38.166Z,9.95
2017-11-04T05:43:05.570Z,9.90
2017-11-04T05:45:32.956Z,9.90
2017-11-04T05:48:00.337Z,9.90
2017-11-04T05:50:27.737Z,9.90
2017-11-04T05:52:55.123Z,9.88
2017-11-04T05:55:22.517Z,9.87
2017-11-04T05:57:49.909Z,9.88
2017-11-04T06:00:17.293Z,9.83
2017-11-04T06:02:44.678Z,9.78
2017-11-04T06:05:12.083Z,9.75
2017-11-04T06:07:39.469Z,9.69
2017-11-04T06:10:06.851Z,9.65
2017-11-04T06:12:34.274Z,9.59
2017-11-04T06:15:01.661Z,9.55
2017-11-04T06:17:29.044Z,9.50
2017-11-04T06:19:56.437Z,9.49
2017-11-04T06:22:23.820Z,9.50
2017-11-04T06:24:51.202Z,9.49
2017-11-04T06:27:18.706Z,9.46
2017-11-04T06:29:46.094Z,9.48
2017-11-04T06:32:13.477Z,9.47
2017-11-04T06:34:40.878Z,9.52
2017-11-04T06:37:08.265Z,9.55
2017-11-04T06:39:35.650Z,9.58
2017-11-04T06:42:03.052Z,9.63
2017-11-04T06:44:30.436Z,9.69
2017-11-04T06:46:57.822Z,9.71
2017-11-04T06:49:25.230Z,9.73
2017-11-04T06:51:52.609Z,9.75
2017-11-04T06:54:19.997Z,9.78
2017-11-04T06:56:47.397Z,9.79
2017-11-04T06:59:14.787Z,9.84
2017-11-04T07:01:42.166Z,9.86
2017-11-04T07:04:09.579Z,9.87
2017-11-04T07:06:36.966Z,9.86
2017-11-04T07:09:04.353Z,9.85
2017-11-04T07:11:31.750Z,9.84
2017-11-04T07:13:59.135Z,9.80
2017-11-04T07:16:26.521Z,9.75
2017-11-04T07:18:53.918Z,9.73
2017-11-04T07:21:21.306Z,9.70
2017-11-04T07:23:48.693Z,9.68
2017-11-04T07:26:16.090Z,9.67
2017-11-04T07:28:43.474Z,9.66
2017-11-04T07:31:10.862Z,9.64
2017-11-04T07:33:38.257Z,9.62
2017-11-04T07:36:05.641Z,9.64
2017-11-04T07:38:33.033Z,9.66
2017-11-04T07:41:00.414Z,9.67
2017-11-04T07:43:27.793Z,9.66
2017-11-04T07:45:55.188Z,9.67
2017-11-04T07:48:22.581Z,9.68
2017-11-04T07:50:49.977Z,9.69
2017-11-04T07:53:17.355Z,9.69
2017-11-04T07:55:44.862Z,9.68
2017-11-04T07:58:12.250Z,9.65
2017-11-04T08:00:39.638Z,9.66
2017-11-04T08:03:07.035Z,9.70
2017-11-04T08:05:34.422Z,9.74
2017-11-04T08:08:01.805Z,9.76
2017-11-04T08:10:29.213Z,9.82
2017-11-04T08:12:56.589Z,9.89
2017-11-04T08:15:23.985Z,9.99
2017-11-04T08:17:51.387Z,10.12
2017-11-04T08:20:18.774Z,10.15
2017-11-04T08:22:46.162Z,10.22
2017-11-04T08:25:13.564Z,10.32
2017-11-04T08:27:40.949Z,10.41
2017-11-04T08:30:08.341Z,10.47
2017-11-04T08:32:35.750Z,10.63
2017-11-04T08:35:03.141Z,10.72
2017-11-04T08:37:30.538Z,10.79
2017-11-04T08:39:57.942Z,10.89
2017-11-04T08:42:25.335Z,10.98
2017-11-04T08:44:52.726Z,11.08
2017-11-04T08:47:20.123Z,11.19
2017-11-04T08:49:47.515Z,11.32
2017-11-04T08:52:14.907Z,11.49
2017-11-04T08:54:42.314Z,11.73
2017-11-04T08:57:09.698Z,11.94
2017-11-04T08:59:37.091Z,12.22
2017-11-04T09:02:04.519Z,12.45
2017-11-04T09:04:31.908Z,12.68
2017-11-04T09:06:59.294Z,12.85
2017-11-04T09:09:26.693Z,12.93
2017-11-04T09:11:54.081Z,13.15
2017-11-04T09:14:21.498Z,13.27
2017-11-04T09:16:48.898Z,13.36
2017-11-04T09:19:16.295Z,13.53
2017-11-04T09:21:43.688Z,13.59
2017-11-04T09:24:11.086Z,13.62
2017-11-04T09:26:38.478Z,13.79
2017-11-04T09:29:05.863Z,13.95
2017-11-04T09:31:33.319Z,14.13
2017-11-04T09:34:00.714Z,14.27
2017-11-04T09:36:28.102Z,14.38
2017-11-04T09:38:55.503Z,14.56
2017-11-04T09:41:22.904Z,14.65
2017-11-04T09:43:50.286Z,14.73
2017-11-04T09:46:17.690Z,14.56
2017-11-04T09:48:45.087Z,14.26
2017-11-04T09:51:12.470Z,14.15
2017-11-04T09:53:39.875Z,14.15
2017-11-04T09:56:07.271Z,14.24
2017-11-04T09:58:34.671Z,14.32
2017-11-04T10:01:02.071Z,14.21
2017-11-04T10:03:29.458Z,14.10
2017-11-04T10:05:56.921Z,14.32
2017-11-04T10:08:24.317Z,14.70
2017-11-04T10:10:51.716Z,14.68
2017-11-04T10:13:19.098Z,14.52
2017-11-04T10:15:46.508Z,14.35
2017-11-04T10:18:13.901Z,14.19
2017-11-04T10:20:41.282Z,14.05
2017-11-04T10:23:08.793Z,13.93
2017-11-04T10:25:36.187Z,13.94
2017-11-04T10:28:03.599Z,14.09
2017-11-04T10:30:31.098Z,14.29
2017-11-04T10:32:58.483Z,14.46
2017-11-04T10:35:25.884Z,14.58
2017-11-04T10:37:53.283Z,14.61
2017-11-04T10:40:20.679Z,14.55
2017-11-04T10:42:48.114Z,14.72
2017-11-04T10:45:16.811Z,14.77
2017-11-04T10:47:44.314Z,14.80
2017-11-04T10:50:11.690Z,14.78
2017-11-04T10:52:39.181Z,14.76
2017-11-04T10:55:06.554Z,14.76
2017-11-04T10:57:33.962Z,14.83
2017-11-04T11:00:01.431Z,14.89
2017-11-04T11:02:28.816Z,14.91
2017-11-04T11:04:56.255Z,14.98
2017-11-04T11:07:23.679Z,15.02
2017-11-04T11:09:51.069Z,15.06
2017-11-04T11:12:18.461Z,15.06
2017-11-04T11:14:45.877Z,15.06
2017-11-04T11:17:13.269Z,15.07
2017-11-04T11:19:40.659Z,15.14
2017-11-04T11:22:08.075Z,15.25
2017-11-04T11:24:35.484Z,15.32
2017-11-04T11:27:02.854Z,15.42
2017-11-04T11:29:30.255Z,15.35
2017-11-04T11:31:57.646Z,15.28
2017-11-04T11:34:25.098Z,15.27
2017-11-04T11:36:52.486Z,15.24
2017-11-04T11:39:19.933Z,15.30
2017-11-04T11:41:47.310Z,15.50
2017-11-04T11:44:14.715Z,15.77
2017-11-04T11:46:42.141Z,15.99
2017-11-04T11:49:09.542Z,16.16
2017-11-04T11:51:36.946Z,16.24
2017-11-04T11:54:04.338Z,16.22
2017-11-04T11:56:31.727Z,15.95
2017-11-04T11:58:59.142Z,15.78
2017-11-04T12:01:26.530Z,15.59
2017-11-04T12:03:53.937Z,15.38
2017-11-04T12:06:21.441Z,15.19
2017-11-04T12:08:48.835Z,15.11
2017-11-04T12:11:16.225Z,15.06
2017-11-04T12:13:43.621Z,15.04
2017-11-04T12:16:11.010Z,15.04
2017-11-04T12:18:38.404Z,15.02
2017-11-04T12:21:05.806Z,15.32
2017-11-04T12:23:33.197Z,15.80
2017-11-04T12:26:00.594Z,16.11
2017-11-04T12:28:27.998Z,16.48
2017-11-04T12:30:55.387Z,16.79
2017-11-04T12:33:22.774Z,16.98
2017-11-04T12:35:50.185Z,17.17
2017-11-04T12:38:17.582Z,17.35
2017-11-04T12:40:44.976Z,17.47
2017-11-04T12:43:16.307Z,17.50
2017-11-04T12:45:50.988Z,17.69
2017-11-04T12:48:18.434Z,17.92
2017-11-04T12:50:45.849Z,17.95
2017-11-04T12:53:13.238Z,17.69
2017-11-04T12:55:40.751Z,17.68
2017-11-04T12:58:08.138Z,17.61
2017-11-04T13:00:35.542Z,17.82
2017-11-04T13:03:02.954Z,17.98
2017-11-04T13:05:30.342Z,18.10
2017-11-04T13:07:57.740Z,18.10
2017-11-04T13:10:25.163Z,18.20
2017-11-04T13:12:52.564Z,18.34
2017-11-04T13:15:19.953Z,18.26
2017-11-04T13:17:47.375Z,18.30
2017-11-04T13:20:14.766Z,18.28
2017-11-04T13:22:42.153Z,18.30
2017-11-04T13:25:09.611Z,18.13
2017-11-04T13:27:37.000Z,18.13
2017-11-04T13:30:04.381Z,18.05
2017-11-04T13:32:31.806Z,18.02
2017-11-04T13:34:59.188Z,18.03
2017-11-04T13:37:26.581Z,18.10
2017-11-04T13:39:53.978Z,18.18
2017-11-04T13:42:21.362Z,18.02
2017-11-04T13:44:48.756Z,18.13
2017-11-04T13:47:16.158Z,18.02
2017-11-04T13:49:43.553Z,17.96
2017-11-04T13:52:10.951Z,17.85
2017-11-04T13:54:38.354Z,17.83
2017-11-04T13:57:05.744Z,17.86
2017-11-04T13:59:33.133Z,17.90
2017-11-04T14:02:00.539Z,17.87
2017-11-04T14:04:27.938Z,17.77
2017-11-04T14:06:55.326Z,17.71
2017-11-04T14:09:22.739Z,17.72
2017-11-04T14:11:54.006Z,17.64
2017-11-04T14:14:21.406Z,17.56
2017-11-04T14:16:48.803Z,17.59
2017-11-04T14:19:16.191Z,17.60
2017-11-04T14:21:43.583Z,17.43
2017-11-04T14:24:10.983Z,17.45
2017-11-04T14:26:38.370Z,17.39
2017-11-04T14:29:05.768Z,17.24
2017-11-04T14:31:33.162Z,17.14
2017-11-04T14:34:00.549Z,17.04
2017-11-04T14:36:27.946Z,16.96
2017-11-04T14:38:55.343Z,16.89
2017-11-04T14:41:22.730Z,16.81
2017-11-04T14:43:50.118Z,16.74
2017-11-04T14:46:17.541Z,16.65
2017-11-04T14:48:44.918Z,16.66
2017-11-04T14:51:12.308Z,16.55
2017-11-04T14:53:39.714Z,16.45
2017-11-04T14:56:07.151Z,16.44
2017-11-04T14:58:34.615Z,16.33
2017-11-04T15:01:03.014Z,16.12
2017-11-04T15:03:30.406Z,16.06
2017-11-04T15:05:57.794Z,16.00
2017-11-04T15:08:25.225Z,16.08
2017-11-04T15:10:52.615Z,16.10
2017-11-04T15:13:20.003Z,16.10
2017-11-04T15:15:47.413Z,16.12
2017-11-04T15:18:14.806Z,16.14
2017-11-04T15:20:42.189Z,16.16
2017-11-04T15:23:09.589Z,16.17
2017-11-04T15:25:36.978Z,16.16
2017-11-04T15:28:04.403Z,16.18
2017-11-04T15:30:31.790Z,16.06
2017-11-04T15:32:59.222Z,16.10
2017-11-04T15:35:26.632Z,16.10
2017-11-04T15:37:54.034Z,16.09
2017-11-04T15:40:21.435Z,16.09
2017-11-04T15:42:48.808Z,16.09
2017-11-04T15:45:16.207Z,16.08
2017-11-04T15:47:43.623Z,16.06
2017-11-04T15:50:11.003Z,16.04
2017-11-04T15:52:38.398Z,16.05
2017-11-04T15:55:05.786Z,16.05
2017-11-04T15:57:33.191Z,16.05
2017-11-04T16:00:00.595Z,16.02
2017-11-04T16:02:27.986Z,16.04
2017-11-04T16:04:55.378Z,16.05
2017-11-04T16:07:22.806Z,16.02
2017-11-04T16:09:50.189Z,16.02
2017-11-04T16:12:17.578Z,16.02
2017-11-04T16:14:44.993Z,16.02
2017-11-04T16:17:12.382Z,16.01
2017-11-04T16:19:39.773Z,15.98
2017-11-04T16:22:07.185Z,15.93
2017-11-04T16:24:34.573Z,15.91
2017-11-04T16:27:01.959Z,15.86
2017-11-04T16:29:30.306Z,15.85
2017-11-04T16:31:57.694Z,15.84
2017-11-04T16:34:25.086Z,15.84
2017-11-04T16:36:52.860Z,15.81
2017-11-04T16:39:20.246Z,15.79
2017-11-04T16:41:47.634Z,15.77
2017-11-04T16:44:15.043Z,15.80
2017-11-04T16:46:43.010Z,15.82
2017-11-04T16:49:10.478Z,15.83
2017-11-04T16:51:37.918Z,15.83
2017-11-04T16:54:05.295Z,15.81
2017-11-04T16:56:32.682Z,15.78
2017-11-04T16:59:00.092Z,15.79
2017-11-04T17:01:27.482Z,15.79
2017-11-04T17:03:55.494Z,15.85
2017-11-04T17:06:25.420Z,15.83
2017-11-04T17:08:52.795Z,15.82
2017-11-04T17:11:20.236Z,15.80
2017-11-04T17:13:48.362Z,15.79
2017-11-04T17:16:15.746Z,15.84
2017-11-04T17:18:43.133Z,15.82
2017-11-04T17:21:10.599Z,15.81
2017-11-04T17:23:37.991Z,15.78
2017-11-04T17:26:05.382Z,15.78
2017-11-04T17:28:32.790Z,15.79
2017-11-04T17:31:00.211Z,15.73
2017-11-04T17:33:27.619Z,15.64
2017-11-04T17:35:55.130Z,15.58
2017-11-04T17:38:22.575Z,15.49
2017-11-04T17:40:50.027Z,15.50
2017-11-04T17:43:17.497Z,15.47
2017-11-04T17:45:44.942Z,15.44
2017-11-04T17:48:12.344Z,15.44
2017-11-04T17:50:39.755Z,15.44
2017-11-04T17:53:07.151Z,15.45
2017-11-04T17:55:34.571Z,15.44
2017-11-04T17:58:01.967Z,15.43
2017-11-04T18:00:29.378Z,15.47
2017-11-04T18:02:56.770Z,15.47
2017-11-04T18:05:24.170Z,15.50
2017-11-04T18:07:51.650Z,15.51
2017-11-04T18:10:19.067Z,15.55
2017-11-04T18:12:46.449Z,15.55
2017-11-04T18:15:13.842Z,15.56
2017-11-04T18:17:43.352Z,15.58
2017-11-04T18:20:10.738Z,15.57
2017-11-04T18:22:38.135Z,15.58
2017-11-04T18:25:05.518Z,15.56
2017-11-04T18:27:32.941Z,15.60
2017-11-04T18:30:00.330Z,15.59
2017-11-04T18:32:27.725Z,15.60
2017-11-04T18:34:55.234Z,15.66
2017-11-04T18:37:22.618Z,15.65
2017-11-04T18:39:50.010Z,15.63
2017-11-04T18:42:17.410Z,15.58
2017-11-04T18:44:44.801Z,15.57
2017-11-04T18:47:12.194Z,15.53
2017-11-04T18:49:39.594Z,15.55
2017-11-04T18:52:07.078Z,15.55
2017-11-04T18:54:34.467Z,15.55
2017-11-04T18:57:01.879Z,15.51
2017-11-04T18:59:29.262Z,15.49
2017-11-04T19:01:56.649Z,15.50
2017-11-04T19:04:24.054Z,15.47
2017-11-04T19:06:51.451Z,15.45
2017-11-04T19:09:18.831Z,15.50
2017-11-04T19:11:46.240Z,15.52
2017-11-04T19:14:14.653Z,15.55
2017-11-04T19:16:42.039Z,15.56
2017-11-04T19:19:09.438Z,15.57
2017-11-04T19:21:36.834Z,15.55
2017-11-04T19:24:04.226Z,15.60
2017-11-04T19:26:31.755Z,15.61
2017-11-04T19:28:59.144Z,15.64
2017-11-04T19:31:26.530Z,15.63
2017-11-04T19:33:53.929Z,15.64
2017-11-04T19:36:21.319Z,15.64
2017-11-04T19:38:48.740Z,15.63
2017-11-04T19:41:16.126Z,15.62
2017-11-04T19:43:43.516Z,15.64
2017-11-04T19:46:10.897Z,15.66
2017-11-04T19:48:38.304Z,15.75
2017-11-04T19:51:05.691Z,15.79
2017-11-04T19:53:33.082Z,15.81
2017-11-04T19:56:02.113Z,15.81
2017-11-04T19:58:29.698Z,15.84
2017-11-04T20:00:57.146Z,15.85
2017-11-04T20:03:24.554Z,15.82
2017-11-04T20:05:51.952Z,15.85
2017-11-04T20:08:19.341Z,15.85
2017-11-04T20:10:46.745Z,15.85
2017-11-04T20:13:15.133Z,15.87
2017-11-04T20:15:42.586Z,15.91
2017-11-04T20:18:09.990Z,15.84
2017-11-04T20:20:37.378Z,15.82
2017-11-04T20:23:04.777Z,15.82
2017-11-04T20:25:34.098Z,15.79
2017-11-04T20:28:02.379Z,15.75
2017-11-04T20:30:29.774Z,15.74
2017-11-04T20:32:57.198Z,15.77
2017-11-04T20:35:24.916Z,15.79
2017-11-04T20:37:52.313Z,15.77
2017-11-04T20:40:19.726Z,15.73
2017-11-04T20:42:47.102Z,15.73
2017-11-04T20:45:14.490Z,15.73
2017-11-04T20:47:41.902Z,15.66
2017-11-04T20:50:09.298Z,15.61
2017-11-04T20:52:36.754Z,15.54
2017-11-04T20:55:04.158Z,15.50
2017-11-04T20:57:31.553Z,15.50
2017-11-04T20:59:58.942Z,15.50
2017-11-04T21:02:26.362Z,15.53
2017-11-04T21:04:53.753Z,15.53
2017-11-04T21:07:21.370Z,15.51
2017-11-04T21:09:48.782Z,15.47
2017-11-04T21:12:16.178Z,15.48
2017-11-04T21:14:43.576Z,15.51
2017-11-04T21:17:10.966Z,15.55
2017-11-04T21:19:38.354Z,15.52
2017-11-04T21:22:05.746Z,15.49
2017-11-04T21:24:33.158Z,15.51
2017-11-04T21:27:00.542Z,15.60
2017-11-04T21:29:27.930Z,15.60
2017-11-04T21:31:56.170Z,15.63
2017-11-04T21:34:23.554Z,15.68
2017-11-04T21:36:50.951Z,15.69
2017-11-04T21:39:18.350Z,15.68
2017-11-04T21:41:45.750Z,15.68
2017-11-04T21:44:13.134Z,15.66
2017-11-04T21:46:40.535Z,15.67
2017-11-04T21:49:07.929Z,15.66
2017-11-04T21:51:35.319Z,15.68
2017-11-04T21:54:02.727Z,15.66
2017-11-04T21:56:30.114Z,15.65
2017-11-04T21:58:57.502Z,15.63
2017-11-04T22:01:24.913Z,15.63
2017-11-04T22:03:52.293Z,15.61
2017-11-04T22:06:19.682Z,15.65
2017-11-04T22:08:47.086Z,15.61
2017-11-04T22:11:14.470Z,15.55
2017-11-04T22:13:41.862Z,15.53
2017-11-04T22:16:09.270Z,15.47
2017-11-04T22:18:36.654Z,15.44
2017-11-04T22:21:04.041Z,15.44
2017-11-04T22:23:31.442Z,15.46
2017-11-04T22:25:58.831Z,15.49
2017-11-04T22:28:26.300Z,15.47
2017-11-04T22:30:53.697Z,15.51
2017-11-04T22:33:21.078Z,15.46
2017-11-04T22:35:48.477Z,15.47
2017-11-04T22:38:15.899Z,15.45
2017-11-04T22:40:43.299Z,15.49
2017-11-04T22:43:10.674Z,15.46
2017-11-04T22:45:38.085Z,15.47
2017-11-04T22:48:05.478Z,15.45
2017-11-04T22:50:32.865Z,15.43
2017-11-04T22:53:00.270Z,15.41
2017-11-04T22:55:27.657Z,15.40
2017-11-04T22:57:55.047Z,15.41
2017-11-04T23:00:22.462Z,15.40
2017-11-04T23:02:49.850Z,15.42
2017-11-04T23:05:17.242Z,15.39
2017-11-04T23:07:44.642Z,15.39
2017-11-04T23:10:12.040Z,15.47
2017-11-04T23:12:39.426Z,15.43
2017-11-04T23:15:06.819Z,15.48
2017-11-04T23:17:34.216Z,15.48
2017-11-04T23:20:01.602Z,15.47
2017-11-04T23:22:29.014Z,15.52
2017-11-04T23:24:56.401Z,15.49
2017-11-04T23:27:23.798Z,15.47
2017-11-04T23:29:51.202Z,15.44
2017-11-04T23:32:18.591Z,15.37
2017-11-04T23:34:45.982Z,15.34
2017-11-04T23:37:13.397Z,15.27
2017-11-04T23:39:40.781Z,15.23
2017-11-04T23:42:08.174Z,15.18
2017-11-04T23:44:35.590Z,15.12
2017-11-04T23:47:02.989Z,15.07
2017-11-04T23:49:30.367Z,14.99
2017-11-04T23:51:57.770Z,14.99
2017-11-04T23:54:25.166Z,14.99
2017-11-04T23:56:52.561Z,14.98
2017-11-04T23:59:19.959Z,14.93
